sensor_id;sensor_type;location;lat;lon;timestamp;P1;durP1;ratioP1;P2;durP2;ratioP2
3415;SDS011;1721;51.238;9.562;2022-08-19T00:00:18;37.07;;;18.33;;
3415;SDS011;1721;51.238;9.562;2022-08-19T00:02:44;40.65;;;19.58;;
3415;SDS011;1721;51.238;9.562;2022-08-19T00:05:11;36.60;;;17.85;;
3415;SDS011;1721;51.238;9.562;2022-08-19T00:07:42;35.33;;;17.85;;
3415;SDS011;1721;51.238;9.562;2022-08-19T00:10:09;39.63;;;16.50;;
3415;SDS011;1721;51.238;9.562;2022-08-19T00:12:38;35.10;;;17.30;;
3415;SDS011;1721;51.238;9.562;2022-08-19T00:15:04;36.10;;;18.20;;
3415;SDS011;1721;51.238;9.562;2022-08-19T00:17:39;37.00;;;18.77;;
3415;SDS011;1721;51.238;9.562;2022-08-19T00:20:06;37.20;;;18.90;;
3415;SDS011;1721;51.238;9.562;2022-08-19T00:22:33;34.72;;;18.00;;
3415;SDS011;1721;51.238;9.562;2022-08-19T00:24:58;37.65;;;19.17;;
3415;SDS011;1721;51.238;9.562;2022-08-19T00:27:24;34.13;;;17.25;;
3415;SDS011;1721;51.238;9.562;2022-08-19T00:29:50;40.45;;;18.52;;
3415;SDS011;1721;51.238;9.562;2022-08-19T00:32:15;37.07;;;18.63;;
3415;SDS011;1721;51.238;9.562;2022-08-19T00:34:41;35.53;;;17.97;;
3415;SDS011;1721;51.238;9.562;2022-08-19T00:37:08;35.05;;;17.40;;
3415;SDS011;1721;51.238;9.562;2022-08-19T00:39:34;35.35;;;16.13;;
3415;SDS011;1721;51.238;9.562;2022-08-19T00:42:00;35.75;;;18.00;;
3415;SDS011;1721;51.238;9.562;2022-08-19T00:44:27;34.05;;;18.10;;
3415;SDS011;1721;51.238;9.562;2022-08-19T00:46:55;30.90;;;17.30;;
3415;SDS011;1721;51.238;9.562;2022-08-19T00:49:37;31.25;;;16.08;;
3415;SDS011;1721;51.238;9.562;2022-08-19T00:52:25;35.72;;;16.33;;
3415;SDS011;1721;51.238;9.562;2022-08-19T00:54:54;32.78;;;16.13;;
3415;SDS011;1721;51.238;9.562;2022-08-19T00:57:22;32.60;;;16.27;;
3415;SDS011;1721;51.238;9.562;2022-08-19T00:59:53;32.97;;;15.98;;
3415;SDS011;1721;51.238;9.562;2022-08-19T01:02:20;33.55;;;16.30;;
3415;SDS011;1721;51.238;9.562;2022-08-19T01:04:46;30.83;;;16.50;;
3415;SDS011;1721;51.238;9.562;2022-08-19T01:07:12;29.30;;;16.13;;
3415;SDS011;1721;51.238;9.562;2022-08-19T01:09:38;29.73;;;15.68;;
3415;SDS011;1721;51.238;9.562;2022-08-19T01:12:04;29.77;;;15.77;;
3415;SDS011;1721;51.238;9.562;2022-08-19T01:14:29;30.00;;;16.03;;
3415;SDS011;1721;51.238;9.562;2022-08-19T01:16:55;30.73;;;15.60;;
3415;SDS011;1721;51.238;9.562;2022-08-19T01:22:01;29.30;;;15.60;;
3415;SDS011;1721;51.238;9.562;2022-08-19T01:24:54;29.73;;;14.75;;
3415;SDS011;1721;51.238;9.562;2022-08-19T01:27:19;31.30;;;15.77;;
3415;SDS011;1721;51.238;9.562;2022-08-19T01:29:45;29.80;;;15.93;;
3415;SDS011;1721;51.238;9.562;2022-08-19T01:32:11;31.40;;;15.30;;
3415;SDS011;1721;51.238;9.562;2022-08-19T01:34:40;27.85;;;16.02;;
3415;SDS011;1721;51.238;9.562;2022-08-19T01:37:07;26.50;;;14.40;;
3415;SDS011;1721;51.238;9.562;2022-08-19T01:39:36;26.77;;;15.02;;
3415;SDS011;1721;51.238;9.562;2022-08-19T01:42:03;27.75;;;14.60;;
3415;SDS011;1721;51.238;9.562;2022-08-19T01:44:29;29.17;;;14.82;;
3415;SDS011;1721;51.238;9.562;2022-08-19T01:46:55;27.53;;;13.93;;
3415;SDS011;1721;51.238;9.562;2022-08-19T01:49:21;28.38;;;13.40;;
3415;SDS011;1721;51.238;9.562;2022-08-19T01:51:49;25.00;;;13.30;;
3415;SDS011;1721;51.238;9.562;2022-08-19T01:54:16;27.10;;;13.40;;
3415;SDS011;1721;51.238;9.562;2022-08-19T01:56:42;30.58;;;13.82;;
3415;SDS011;1721;51.238;9.562;2022-08-19T01:59:10;28.40;;;13.70;;
3415;SDS011;1721;51.238;9.562;2022-08-19T02:01:39;27.13;;;14.13;;
3415;SDS011;1721;51.238;9.562;2022-08-19T02:04:05;26.33;;;13.40;;
3415;SDS011;1721;51.238;9.562;2022-08-19T02:06:31;22.67;;;13.13;;
3415;SDS011;1721;51.238;9.562;2022-08-19T02:08:58;25.65;;;12.90;;
3415;SDS011;1721;51.238;9.562;2022-08-19T02:11:26;28.23;;;13.38;;
3415;SDS011;1721;51.238;9.562;2022-08-19T02:13:56;25.60;;;12.48;;
3415;SDS011;1721;51.238;9.562;2022-08-19T02:16:22;26.50;;;12.87;;
3415;SDS011;1721;51.238;9.562;2022-08-19T02:18:48;23.90;;;12.98;;
3415;SDS011;1721;51.238;9.562;2022-08-19T02:21:15;20.70;;;11.82;;
3415;SDS011;1721;51.238;9.562;2022-08-19T02:23:42;22.33;;;12.52;;
3415;SDS011;1721;51.238;9.562;2022-08-19T02:26:08;25.65;;;13.63;;
3415;SDS011;1721;51.238;9.562;2022-08-19T02:28:34;26.52;;;12.70;;
3415;SDS011;1721;51.238;9.562;2022-08-19T02:31:01;23.95;;;13.68;;
3415;SDS011;1721;51.238;9.562;2022-08-19T02:33:27;27.47;;;12.93;;
3415;SDS011;1721;51.238;9.562;2022-08-19T02:35:53;24.48;;;13.05;;
3415;SDS011;1721;51.238;9.562;2022-08-19T02:38:19;24.30;;;13.03;;
3415;SDS011;1721;51.238;9.562;2022-08-19T02:40:51;23.80;;;12.88;;
3415;SDS011;1721;51.238;9.562;2022-08-19T02:43:19;26.58;;;12.98;;
3415;SDS011;1721;51.238;9.562;2022-08-19T02:45:45;24.58;;;12.02;;
3415;SDS011;1721;51.238;9.562;2022-08-19T02:48:13;24.98;;;12.52;;
3415;SDS011;1721;51.238;9.562;2022-08-19T02:50:43;22.65;;;12.23;;
3415;SDS011;1721;51.238;9.562;2022-08-19T02:53:10;24.80;;;12.93;;
3415;SDS011;1721;51.238;9.562;2022-08-19T02:55:36;21.63;;;12.27;;
3415;SDS011;1721;51.238;9.562;2022-08-19T02:58:08;27.45;;;13.40;;
3415;SDS011;1721;51.238;9.562;2022-08-19T03:00:34;23.15;;;12.98;;
3415;SDS011;1721;51.238;9.562;2022-08-19T03:03:00;25.90;;;12.27;;
3415;SDS011;1721;51.238;9.562;2022-08-19T03:05:25;24.00;;;12.10;;
3415;SDS011;1721;51.238;9.562;2022-08-19T03:07:52;23.27;;;12.43;;
3415;SDS011;1721;51.238;9.562;2022-08-19T03:10:18;24.67;;;12.50;;
3415;SDS011;1721;51.238;9.562;2022-08-19T03:12:43;24.47;;;11.73;;
3415;SDS011;1721;51.238;9.562;2022-08-19T03:15:11;22.23;;;11.80;;
3415;SDS011;1721;51.238;9.562;2022-08-19T03:17:36;25.23;;;10.80;;
3415;SDS011;1721;51.238;9.562;2022-08-19T03:20:02;24.50;;;11.43;;
3415;SDS011;1721;51.238;9.562;2022-08-19T03:22:29;22.50;;;11.73;;
3415;SDS011;1721;51.238;9.562;2022-08-19T03:24:55;25.25;;;11.00;;
3415;SDS011;1721;51.238;9.562;2022-08-19T03:27:21;21.27;;;10.50;;
3415;SDS011;1721;51.238;9.562;2022-08-19T03:29:47;18.88;;;10.20;;
3415;SDS011;1721;51.238;9.562;2022-08-19T03:32:13;20.70;;;10.15;;
3415;SDS011;1721;51.238;9.562;2022-08-19T03:34:38;22.77;;;9.97;;
3415;SDS011;1721;51.238;9.562;2022-08-19T03:37:07;19.30;;;9.20;;
3415;SDS011;1721;51.238;9.562;2022-08-19T03:39:37;19.67;;;10.03;;
3415;SDS011;1721;51.238;9.562;2022-08-19T03:42:04;20.52;;;10.20;;
3415;SDS011;1721;51.238;9.562;2022-08-19T03:44:30;25.02;;;10.30;;
3415;SDS011;1721;51.238;9.562;2022-08-19T03:46:57;19.63;;;9.82;;
3415;SDS011;1721;51.238;9.562;2022-08-19T03:49:25;16.87;;;9.80;;
3415;SDS011;1721;51.238;9.562;2022-08-19T03:51:53;20.15;;;10.20;;
3415;SDS011;1721;51.238;9.562;2022-08-19T03:54:20;20.90;;;9.80;;
3415;SDS011;1721;51.238;9.562;2022-08-19T03:56:48;19.33;;;9.95;;
3415;SDS011;1721;51.238;9.562;2022-08-19T03:59:29;23.20;;;10.57;;
3415;SDS011;1721;51.238;9.562;2022-08-19T04:01:58;20.65;;;10.05;;
3415;SDS011;1721;51.238;9.562;2022-08-19T04:04:26;21.33;;;10.55;;
3415;SDS011;1721;51.238;9.562;2022-08-19T04:06:52;23.50;;;10.73;;
3415;SDS011;1721;51.238;9.562;2022-08-19T04:09:18;22.15;;;10.40;;
3415;SDS011;1721;51.238;9.562;2022-08-19T04:11:49;19.98;;;10.23;;
3415;SDS011;1721;51.238;9.562;2022-08-19T04:14:19;19.02;;;10.00;;
3415;SDS011;1721;51.238;9.562;2022-08-19T04:16:46;20.33;;;10.52;;
3415;SDS011;1721;51.238;9.562;2022-08-19T04:19:13;20.77;;;10.07;;
3415;SDS011;1721;51.238;9.562;2022-08-19T04:21:40;20.27;;;10.05;;
3415;SDS011;1721;51.238;9.562;2022-08-19T04:24:08;24.95;;;10.95;;
3415;SDS011;1721;51.238;9.562;2022-08-19T04:26:35;22.98;;;10.88;;
3415;SDS011;1721;51.238;9.562;2022-08-19T04:29:07;20.30;;;9.47;;
3415;SDS011;1721;51.238;9.562;2022-08-19T04:31:43;22.98;;;9.10;;
3415;SDS011;1721;51.238;9.562;2022-08-19T04:34:10;23.40;;;10.07;;
3415;SDS011;1721;51.238;9.562;2022-08-19T04:36:38;19.58;;;9.00;;
3415;SDS011;1721;51.238;9.562;2022-08-19T04:39:10;17.50;;;8.73;;
3415;SDS011;1721;51.238;9.562;2022-08-19T04:41:39;18.00;;;8.93;;
3415;SDS011;1721;51.238;9.562;2022-08-19T04:44:23;20.98;;;9.18;;
3415;SDS011;1721;51.238;9.562;2022-08-19T04:46:49;18.95;;;8.02;;
3415;SDS011;1721;51.238;9.562;2022-08-19T04:49:16;22.15;;;9.45;;
3415;SDS011;1721;51.238;9.562;2022-08-19T04:51:44;18.48;;;8.02;;
3415;SDS011;1721;51.238;9.562;2022-08-19T04:54:12;23.27;;;8.70;;
3415;SDS011;1721;51.238;9.562;2022-08-19T04:56:39;19.65;;;8.90;;
3415;SDS011;1721;51.238;9.562;2022-08-19T04:59:05;16.30;;;7.65;;
3415;SDS011;1721;51.238;9.562;2022-08-19T05:01:32;16.47;;;7.40;;
3415;SDS011;1721;51.238;9.562;2022-08-19T05:03:59;18.77;;;8.40;;
3415;SDS011;1721;51.238;9.562;2022-08-19T05:06:25;17.95;;;7.63;;
3415;SDS011;1721;51.238;9.562;2022-08-19T05:08:51;19.40;;;7.68;;
3415;SDS011;1721;51.238;9.562;2022-08-19T05:11:22;14.80;;;7.80;;
3415;SDS011;1721;51.238;9.562;2022-08-19T05:13:50;18.40;;;7.82;;
3415;SDS011;1721;51.238;9.562;2022-08-19T05:16:17;14.77;;;7.60;;
3415;SDS011;1721;51.238;9.562;2022-08-19T05:18:46;18.90;;;7.15;;
3415;SDS011;1721;51.238;9.562;2022-08-19T05:21:31;20.17;;;7.90;;
3415;SDS011;1721;51.238;9.562;2022-08-19T05:24:16;18.23;;;7.75;;
3415;SDS011;1721;51.238;9.562;2022-08-19T05:26:45;14.30;;;7.00;;
3415;SDS011;1721;51.238;9.562;2022-08-19T05:29:13;14.77;;;7.22;;
3415;SDS011;1721;51.238;9.562;2022-08-19T05:31:43;14.98;;;6.80;;
3415;SDS011;1721;51.238;9.562;2022-08-19T05:34:09;17.33;;;7.20;;
3415;SDS011;1721;51.238;9.562;2022-08-19T05:36:44;14.18;;;6.43;;
3415;SDS011;1721;51.238;9.562;2022-08-19T05:39:12;14.13;;;6.80;;
3415;SDS011;1721;51.238;9.562;2022-08-19T05:41:41;12.30;;;6.77;;
3415;SDS011;1721;51.238;9.562;2022-08-19T05:44:08;17.80;;;6.97;;
3415;SDS011;1721;51.238;9.562;2022-08-19T05:46:35;14.18;;;6.80;;
3415;SDS011;1721;51.238;9.562;2022-08-19T05:49:03;14.55;;;6.78;;
3415;SDS011;1721;51.238;9.562;2022-08-19T05:51:32;11.43;;;5.90;;
3415;SDS011;1721;51.238;9.562;2022-08-19T05:54:00;14.75;;;6.22;;
3415;SDS011;1721;51.238;9.562;2022-08-19T05:56:26;12.05;;;6.07;;
3415;SDS011;1721;51.238;9.562;2022-08-19T05:58:52;13.27;;;5.97;;
3415;SDS011;1721;51.238;9.562;2022-08-19T06:01:19;11.80;;;6.05;;
3415;SDS011;1721;51.238;9.562;2022-08-19T06:03:45;10.85;;;5.72;;
3415;SDS011;1721;51.238;9.562;2022-08-19T06:06:13;16.02;;;5.82;;
3415;SDS011;1721;51.238;9.562;2022-08-19T06:08:40;13.48;;;6.10;;
3415;SDS011;1721;51.238;9.562;2022-08-19T06:13:42;12.27;;;5.50;;
3415;SDS011;1721;51.238;9.562;2022-08-19T06:16:12;14.27;;;5.97;;
3415;SDS011;1721;51.238;9.562;2022-08-19T06:18:37;12.93;;;5.95;;
3415;SDS011;1721;51.238;9.562;2022-08-19T06:21:03;15.82;;;5.82;;
3415;SDS011;1721;51.238;9.562;2022-08-19T06:23:29;13.50;;;5.60;;
3415;SDS011;1721;51.238;9.562;2022-08-19T06:25:55;12.68;;;5.20;;
3415;SDS011;1721;51.238;9.562;2022-08-19T06:28:21;11.60;;;5.15;;
3415;SDS011;1721;51.238;9.562;2022-08-19T06:30:48;14.73;;;6.15;;
3415;SDS011;1721;51.238;9.562;2022-08-19T06:33:15;13.00;;;5.38;;
3415;SDS011;1721;51.238;9.562;2022-08-19T06:35:41;13.63;;;5.65;;
3415;SDS011;1721;51.238;9.562;2022-08-19T06:38:06;9.40;;;4.70;;
3415;SDS011;1721;51.238;9.562;2022-08-19T06:40:34;10.10;;;4.70;;
3415;SDS011;1721;51.238;9.562;2022-08-19T06:43:00;9.60;;;5.00;;
3415;SDS011;1721;51.238;9.562;2022-08-19T06:45:27;10.30;;;4.60;;
3415;SDS011;1721;51.238;9.562;2022-08-19T06:47:53;8.93;;;4.10;;
3415;SDS011;1721;51.238;9.562;2022-08-19T06:50:20;10.15;;;4.70;;
3415;SDS011;1721;51.238;9.562;2022-08-19T06:52:49;9.25;;;4.70;;
3415;SDS011;1721;51.238;9.562;2022-08-19T06:55:15;11.80;;;4.05;;
3415;SDS011;1721;51.238;9.562;2022-08-19T06:57:41;10.63;;;3.83;;
3415;SDS011;1721;51.238;9.562;2022-08-19T07:00:07;9.63;;;3.63;;
3415;SDS011;1721;51.238;9.562;2022-08-19T07:02:38;8.90;;;3.70;;
3415;SDS011;1721;51.238;9.562;2022-08-19T07:05:05;9.15;;;4.00;;
3415;SDS011;1721;51.238;9.562;2022-08-19T07:07:31;7.40;;;4.00;;
3415;SDS011;1721;51.238;9.562;2022-08-19T07:09:56;10.90;;;4.45;;
3415;SDS011;1721;51.238;9.562;2022-08-19T07:12:22;10.63;;;4.10;;
3415;SDS011;1721;51.238;9.562;2022-08-19T07:14:47;10.40;;;3.80;;
3415;SDS011;1721;51.238;9.562;2022-08-19T07:17:14;9.85;;;3.88;;
3415;SDS011;1721;51.238;9.562;2022-08-19T07:19:40;10.00;;;4.10;;
3415;SDS011;1721;51.238;9.562;2022-08-19T07:22:08;10.30;;;4.20;;
3415;SDS011;1721;51.238;9.562;2022-08-19T07:24:34;11.27;;;4.35;;
3415;SDS011;1721;51.238;9.562;2022-08-19T07:27:01;8.18;;;3.75;;
3415;SDS011;1721;51.238;9.562;2022-08-19T07:29:28;10.77;;;4.20;;
3415;SDS011;1721;51.238;9.562;2022-08-19T07:31:57;9.20;;;3.88;;
3415;SDS011;1721;51.238;9.562;2022-08-19T07:34:24;11.95;;;4.03;;
3415;SDS011;1721;51.238;9.562;2022-08-19T07:36:51;7.78;;;3.80;;
3415;SDS011;1721;51.238;9.562;2022-08-19T07:39:22;7.90;;;3.90;;
3415;SDS011;1721;51.238;9.562;2022-08-19T07:41:51;7.00;;;3.50;;
3415;SDS011;1721;51.238;9.562;2022-08-19T07:44:17;7.65;;;3.85;;
3415;SDS011;1721;51.238;9.562;2022-08-19T07:46:46;8.25;;;3.90;;
3415;SDS011;1721;51.238;9.562;2022-08-19T07:49:14;13.05;;;4.10;;
3415;SDS011;1721;51.238;9.562;2022-08-19T07:52:06;9.63;;;3.83;;
3415;SDS011;1721;51.238;9.562;2022-08-19T07:54:33;12.80;;;4.80;;
3415;SDS011;1721;51.238;9.562;2022-08-19T07:57:00;9.35;;;4.63;;
3415;SDS011;1721;51.238;9.562;2022-08-19T07:59:26;9.73;;;4.53;;
3415;SDS011;1721;51.238;9.562;2022-08-19T08:01:53;7.80;;;4.20;;
3415;SDS011;1721;51.238;9.562;2022-08-19T08:04:19;9.30;;;4.50;;
3415;SDS011;1721;51.238;9.562;2022-08-19T08:07:04;8.65;;;4.50;;
3415;SDS011;1721;51.238;9.562;2022-08-19T08:09:50;12.27;;;4.90;;
3415;SDS011;1721;51.238;9.562;2022-08-19T08:12:18;8.25;;;4.30;;
3415;SDS011;1721;51.238;9.562;2022-08-19T08:14:54;9.35;;;4.90;;
3415;SDS011;1721;51.238;9.562;2022-08-19T08:17:24;8.73;;;4.63;;
3415;SDS011;1721;51.238;9.562;2022-08-19T08:19:52;11.63;;;4.53;;
3415;SDS011;1721;51.238;9.562;2022-08-19T08:22:19;9.15;;;4.40;;
3415;SDS011;1721;51.238;9.562;2022-08-19T08:25:09;10.10;;;4.40;;
3415;SDS011;1721;51.238;9.562;2022-08-19T08:27:41;11.55;;;4.80;;
3415;SDS011;1721;51.238;9.562;2022-08-19T08:30:09;8.18;;;4.53;;
3415;SDS011;1721;51.238;9.562;2022-08-19T08:32:40;9.93;;;5.03;;
3415;SDS011;1721;51.238;9.562;2022-08-19T08:35:07;10.10;;;4.90;;
3415;SDS011;1721;51.238;9.562;2022-08-19T08:37:36;11.90;;;4.40;;
3415;SDS011;1721;51.238;9.562;2022-08-19T08:42:51;8.60;;;4.30;;
3415;SDS011;1721;51.238;9.562;2022-08-19T08:45:59;10.50;;;4.80;;
3415;SDS011;1721;51.238;9.562;2022-08-19T08:48:38;11.85;;;4.88;;
3415;SDS011;1721;51.238;9.562;2022-08-19T08:51:39;13.87;;;5.07;;
3415;SDS011;1721;51.238;9.562;2022-08-19T08:54:10;11.53;;;5.17;;
3415;SDS011;1721;51.238;9.562;2022-08-19T08:56:38;10.03;;;4.63;;
3415;SDS011;1721;51.238;9.562;2022-08-19T08:59:07;11.63;;;4.82;;
3415;SDS011;1721;51.238;9.562;2022-08-19T09:01:42;9.95;;;4.97;;
3415;SDS011;1721;51.238;9.562;2022-08-19T09:04:08;10.45;;;4.80;;
3415;SDS011;1721;51.238;9.562;2022-08-19T09:06:39;10.88;;;4.78;;
3415;SDS011;1721;51.238;9.562;2022-08-19T09:09:16;9.50;;;4.90;;
3415;SDS011;1721;51.238;9.562;2022-08-19T09:11:50;9.50;;;5.10;;
3415;SDS011;1721;51.238;9.562;2022-08-19T09:14:32;8.23;;;4.65;;
3415;SDS011;1721;51.238;9.562;2022-08-19T09:17:10;8.45;;;4.55;;
3415;SDS011;1721;51.238;9.562;2022-08-19T09:19:46;9.98;;;4.95;;
3415;SDS011;1721;51.238;9.562;2022-08-19T09:22:18;11.63;;;4.80;;
3415;SDS011;1721;51.238;9.562;2022-08-19T09:24:47;9.55;;;5.10;;
3415;SDS011;1721;51.238;9.562;2022-08-19T09:27:17;8.25;;;4.20;;
3415;SDS011;1721;51.238;9.562;2022-08-19T09:29:43;9.75;;;4.57;;
3415;SDS011;1721;51.238;9.562;2022-08-19T09:32:08;11.88;;;4.22;;
3415;SDS011;1721;51.238;9.562;2022-08-19T09:34:34;9.50;;;4.70;;
3415;SDS011;1721;51.238;9.562;2022-08-19T09:37:00;7.53;;;3.97;;
3415;SDS011;1721;51.238;9.562;2022-08-19T09:39:26;8.82;;;4.10;;
3415;SDS011;1721;51.238;9.562;2022-08-19T09:41:51;8.60;;;4.70;;
3415;SDS011;1721;51.238;9.562;2022-08-19T09:44:18;8.07;;;4.07;;
3415;SDS011;1721;51.238;9.562;2022-08-19T09:46:45;8.05;;;4.13;;
3415;SDS011;1721;51.238;9.562;2022-08-19T09:49:14;8.75;;;4.25;;
3415;SDS011;1721;51.238;9.562;2022-08-19T09:51:41;8.30;;;4.10;;
3415;SDS011;1721;51.238;9.562;2022-08-19T09:54:07;10.95;;;4.30;;
3415;SDS011;1721;51.238;9.562;2022-08-19T09:56:33;7.90;;;4.20;;
3415;SDS011;1721;51.238;9.562;2022-08-19T09:58:59;8.10;;;4.10;;
3415;SDS011;1721;51.238;9.562;2022-08-19T10:01:27;8.98;;;4.32;;
3415;SDS011;1721;51.238;9.562;2022-08-19T10:03:55;9.77;;;4.00;;
3415;SDS011;1721;51.238;9.562;2022-08-19T10:06:22;8.95;;;4.03;;
3415;SDS011;1721;51.238;9.562;2022-08-19T10:08:50;8.10;;;3.65;;
3415;SDS011;1721;51.238;9.562;2022-08-19T10:11:17;8.60;;;3.85;;
3415;SDS011;1721;51.238;9.562;2022-08-19T10:13:43;7.32;;;3.50;;
3415;SDS011;1721;51.238;9.562;2022-08-19T10:16:11;7.90;;;3.60;;
3415;SDS011;1721;51.238;9.562;2022-08-19T10:18:39;9.35;;;4.50;;
3415;SDS011;1721;51.238;9.562;2022-08-19T10:21:08;10.57;;;3.97;;
3415;SDS011;1721;51.238;9.562;2022-08-19T10:23:37;9.48;;;3.72;;
3415;SDS011;1721;51.238;9.562;2022-08-19T10:26:04;7.25;;;3.67;;
3415;SDS011;1721;51.238;9.562;2022-08-19T10:28:31;6.95;;;3.95;;
3415;SDS011;1721;51.238;9.562;2022-08-19T10:30:58;9.13;;;4.50;;
3415;SDS011;1721;51.238;9.562;2022-08-19T10:33:24;8.85;;;4.30;;
3415;SDS011;1721;51.238;9.562;2022-08-19T10:35:58;9.10;;;4.40;;
3415;SDS011;1721;51.238;9.562;2022-08-19T10:38:24;10.27;;;4.50;;
3415;SDS011;1721;51.238;9.562;2022-08-19T10:40:50;9.32;;;4.38;;
3415;SDS011;1721;51.238;9.562;2022-08-19T10:43:15;8.90;;;3.87;;
3415;SDS011;1721;51.238;9.562;2022-08-19T10:45:42;10.07;;;4.30;;
3415;SDS011;1721;51.238;9.562;2022-08-19T10:48:07;8.50;;;3.78;;
3415;SDS011;1721;51.238;9.562;2022-08-19T10:50:33;10.63;;;4.68;;
3415;SDS011;1721;51.238;9.562;2022-08-19T10:53:17;10.20;;;4.00;;
3415;SDS011;1721;51.238;9.562;2022-08-19T10:55:44;13.38;;;4.20;;
3415;SDS011;1721;51.238;9.562;2022-08-19T10:58:29;8.35;;;3.72;;
3415;SDS011;1721;51.238;9.562;2022-08-19T11:00:56;12.75;;;3.90;;
3415;SDS011;1721;51.238;9.562;2022-08-19T11:03:23;9.20;;;4.00;;
3415;SDS011;1721;51.238;9.562;2022-08-19T11:06:06;9.27;;;3.50;;
3415;SDS011;1721;51.238;9.562;2022-08-19T11:08:33;7.18;;;3.40;;
3415;SDS011;1721;51.238;9.562;2022-08-19T11:11:00;7.37;;;3.20;;
3415;SDS011;1721;51.238;9.562;2022-08-19T11:13:28;6.70;;;3.10;;
3415;SDS011;1721;51.238;9.562;2022-08-19T11:15:56;8.25;;;3.35;;
3415;SDS011;1721;51.238;9.562;2022-08-19T11:18:29;7.47;;;3.60;;
3415;SDS011;1721;51.238;9.562;2022-08-19T11:20:54;9.77;;;3.20;;
3415;SDS011;1721;51.238;9.562;2022-08-19T11:23:29;7.32;;;3.03;;
3415;SDS011;1721;51.238;9.562;2022-08-19T11:25:55;7.93;;;3.53;;
3415;SDS011;1721;51.238;9.562;2022-08-19T11:28:21;9.80;;;3.85;;
3415;SDS011;1721;51.238;9.562;2022-08-19T11:30:47;5.93;;;3.13;;
3415;SDS011;1721;51.238;9.562;2022-08-19T11:33:12;8.93;;;3.15;;
3415;SDS011;1721;51.238;9.562;2022-08-19T11:35:39;7.70;;;3.10;;
3415;SDS011;1721;51.238;9.562;2022-08-19T11:38:05;7.10;;;2.90;;
3415;SDS011;1721;51.238;9.562;2022-08-19T11:40:31;6.00;;;3.30;;
3415;SDS011;1721;51.238;9.562;2022-08-19T11:42:58;6.17;;;3.10;;
3415;SDS011;1721;51.238;9.562;2022-08-19T11:45:24;6.78;;;3.00;;
3415;SDS011;1721;51.238;9.562;2022-08-19T11:47:52;6.50;;;3.22;;
3415;SDS011;1721;51.238;9.562;2022-08-19T11:50:18;6.20;;;2.70;;
3415;SDS011;1721;51.238;9.562;2022-08-19T11:52:43;11.87;;;4.00;;
3415;SDS011;1721;51.238;9.562;2022-08-19T11:55:11;11.83;;;3.80;;
3415;SDS011;1721;51.238;9.562;2022-08-19T11:57:37;6.13;;;3.10;;
3415;SDS011;1721;51.238;9.562;2022-08-19T12:00:04;9.48;;;3.58;;
3415;SDS011;1721;51.238;9.562;2022-08-19T12:02:32;7.10;;;3.95;;
3415;SDS011;1721;51.238;9.562;2022-08-19T12:04:57;6.70;;;3.40;;
3415;SDS011;1721;51.238;9.562;2022-08-19T12:07:23;6.53;;;3.63;;
3415;SDS011;1721;51.238;9.562;2022-08-19T12:09:49;7.03;;;3.20;;
3415;SDS011;1721;51.238;9.562;2022-08-19T12:12:15;10.00;;;3.50;;
3415;SDS011;1721;51.238;9.562;2022-08-19T12:14:42;8.53;;;3.77;;
3415;SDS011;1721;51.238;9.562;2022-08-19T12:17:07;7.57;;;3.17;;
3415;SDS011;1721;51.238;9.562;2022-08-19T12:19:35;6.47;;;3.00;;
3415;SDS011;1721;51.238;9.562;2022-08-19T12:22:01;6.63;;;3.57;;
3415;SDS011;1721;51.238;9.562;2022-08-19T12:24:30;9.63;;;3.23;;
3415;SDS011;1721;51.238;9.562;2022-08-19T12:26:56;8.65;;;3.15;;
3415;SDS011;1721;51.238;9.562;2022-08-19T12:29:23;7.27;;;3.10;;
3415;SDS011;1721;51.238;9.562;2022-08-19T12:31:54;9.70;;;3.10;;
3415;SDS011;1721;51.238;9.562;2022-08-19T12:34:25;7.43;;;3.42;;
3415;SDS011;1721;51.238;9.562;2022-08-19T12:36:55;6.47;;;3.17;;
3415;SDS011;1721;51.238;9.562;2022-08-19T12:39:22;5.43;;;2.72;;
3415;SDS011;1721;51.238;9.562;2022-08-19T12:41:48;5.63;;;2.88;;
3415;SDS011;1721;51.238;9.562;2022-08-19T12:44:14;12.40;;;3.20;;
3415;SDS011;1721;51.238;9.562;2022-08-19T12:46:39;7.07;;;3.10;;
3415;SDS011;1721;51.238;9.562;2022-08-19T12:49:05;5.97;;;2.70;;
3415;SDS011;1721;51.238;9.562;2022-08-19T12:51:31;8.80;;;3.30;;
3415;SDS011;1721;51.238;9.562;2022-08-19T12:53:56;5.80;;;3.00;;
3415;SDS011;1721;51.238;9.562;2022-08-19T12:56:22;8.73;;;3.03;;
3415;SDS011;1721;51.238;9.562;2022-08-19T12:58:47;7.03;;;3.60;;
3415;SDS011;1721;51.238;9.562;2022-08-19T13:01:14;7.90;;;2.90;;
3415;SDS011;1721;51.238;9.562;2022-08-19T13:03:41;6.80;;;3.20;;
3415;SDS011;1721;51.238;9.562;2022-08-19T13:06:08;6.18;;;2.80;;
3415;SDS011;1721;51.238;9.562;2022-08-19T13:08:34;6.32;;;3.00;;
3415;SDS011;1721;51.238;9.562;2022-08-19T13:11:17;8.30;;;2.90;;
3415;SDS011;1721;51.238;9.562;2022-08-19T13:13:45;4.70;;;2.70;;
3415;SDS011;1721;51.238;9.562;2022-08-19T13:16:13;7.50;;;2.70;;
3415;SDS011;1721;51.238;9.562;2022-08-19T13:18:39;7.15;;;2.70;;
3415;SDS011;1721;51.238;9.562;2022-08-19T13:21:07;7.40;;;2.80;;
3415;SDS011;1721;51.238;9.562;2022-08-19T13:23:36;6.95;;;3.00;;
3415;SDS011;1721;51.238;9.562;2022-08-19T13:26:03;5.03;;;2.47;;
3415;SDS011;1721;51.238;9.562;2022-08-19T13:28:30;4.55;;;2.25;;
3415;SDS011;1721;51.238;9.562;2022-08-19T13:31:17;5.22;;;2.60;;
3415;SDS011;1721;51.238;9.562;2022-08-19T13:34:10;5.43;;;2.60;;
3415;SDS011;1721;51.238;9.562;2022-08-19T13:36:36;6.25;;;2.60;;
3415;SDS011;1721;51.238;9.562;2022-08-19T13:39:03;6.68;;;3.00;;
3415;SDS011;1721;51.238;9.562;2022-08-19T13:41:30;5.33;;;2.60;;
3415;SDS011;1721;51.238;9.562;2022-08-19T13:43:56;4.88;;;2.60;;
3415;SDS011;1721;51.238;9.562;2022-08-19T13:46:21;9.63;;;2.50;;
3415;SDS011;1721;51.238;9.562;2022-08-19T13:48:47;7.13;;;2.47;;
3415;SDS011;1721;51.238;9.562;2022-08-19T13:51:13;5.47;;;2.33;;
3415;SDS011;1721;51.238;9.562;2022-08-19T13:53:41;4.63;;;2.40;;
3415;SDS011;1721;51.238;9.562;2022-08-19T13:56:12;6.35;;;2.50;;
3415;SDS011;1721;51.238;9.562;2022-08-19T13:58:39;5.50;;;2.33;;
3415;SDS011;1721;51.238;9.562;2022-08-19T14:01:05;4.90;;;2.40;;
3415;SDS011;1721;51.238;9.562;2022-08-19T14:03:32;4.70;;;2.40;;
3415;SDS011;1721;51.238;9.562;2022-08-19T14:05:58;4.30;;;2.30;;
3415;SDS011;1721;51.238;9.562;2022-08-19T14:08:24;6.13;;;2.60;;
3415;SDS011;1721;51.238;9.562;2022-08-19T14:10:53;4.32;;;2.28;;
3415;SDS011;1721;51.238;9.562;2022-08-19T14:13:20;4.72;;;2.20;;
3415;SDS011;1721;51.238;9.562;2022-08-19T14:15:47;6.80;;;2.40;;
3415;SDS011;1721;51.238;9.562;2022-08-19T14:18:14;5.10;;;2.58;;
3415;SDS011;1721;51.238;9.562;2022-08-19T14:20:41;4.97;;;1.95;;
3415;SDS011;1721;51.238;9.562;2022-08-19T14:23:07;4.65;;;2.20;;
3415;SDS011;1721;51.238;9.562;2022-08-19T14:25:33;5.10;;;2.33;;
3415;SDS011;1721;51.238;9.562;2022-08-19T14:27:59;5.50;;;2.30;;
3415;SDS011;1721;51.238;9.562;2022-08-19T14:30:26;6.78;;;2.10;;
3415;SDS011;1721;51.238;9.562;2022-08-19T14:32:57;4.30;;;2.10;;
3415;SDS011;1721;51.238;9.562;2022-08-19T14:35:24;6.30;;;2.10;;
3415;SDS011;1721;51.238;9.562;2022-08-19T14:37:53;6.20;;;2.20;;
3415;SDS011;1721;51.238;9.562;2022-08-19T14:40:21;6.03;;;2.22;;
3415;SDS011;1721;51.238;9.562;2022-08-19T14:42:53;5.05;;;2.13;;
3415;SDS011;1721;51.238;9.562;2022-08-19T14:45:24;4.15;;;2.25;;
3415;SDS011;1721;51.238;9.562;2022-08-19T14:47:51;4.40;;;2.20;;
3415;SDS011;1721;51.238;9.562;2022-08-19T14:50:17;7.20;;;2.40;;
3415;SDS011;1721;51.238;9.562;2022-08-19T14:52:44;5.20;;;2.40;;
3415;SDS011;1721;51.238;9.562;2022-08-19T14:55:13;7.68;;;2.33;;
3415;SDS011;1721;51.238;9.562;2022-08-19T14:57:40;7.27;;;2.50;;
3415;SDS011;1721;51.238;9.562;2022-08-19T15:00:07;4.80;;;2.20;;
3415;SDS011;1721;51.238;9.562;2022-08-19T15:02:38;5.63;;;2.17;;
3415;SDS011;1721;51.238;9.562;2022-08-19T15:05:04;5.05;;;2.30;;
3415;SDS011;1721;51.238;9.562;2022-08-19T15:07:30;4.57;;;2.50;;
3415;SDS011;1721;51.238;9.562;2022-08-19T15:09:56;5.60;;;2.40;;
3415;SDS011;1721;51.238;9.562;2022-08-19T15:12:22;6.65;;;2.40;;
3415;SDS011;1721;51.238;9.562;2022-08-19T15:14:48;6.20;;;2.67;;
3415;SDS011;1721;51.238;9.562;2022-08-19T15:17:16;6.10;;;2.50;;